Terminal Aerodrome Forecast
Issued by NWS

Home | Current Version | Previous Version | Text Only | Print | Product List | Glossary On
Versions: 1 2 3 4 5 6 7 8 9 10 11 12 13 14 15 16 17
684
FTUS43 KFGF 231317 AAB
TAFTVF
TAF AMD
KTVF 231317Z 2313/2412 12009KT P6SM BKN120
     FM232000 16012KT P6SM BKN090
      TEMPO 2320/2322 4SM TSRA OVC040CB
     FM232200 16011KT P6SM VCTS OVC090CB
     FM232300 20006KT P6SM VCTS BKN090CB
     FM240100 22004KT P6SM SCT250
     FM241100 28010KT P6SM SCT030=

USA.gov is the U.S. government's official web portal to all federal, state and local government web resources and services.